sensor_id;sensor_type;location;lat;lon;timestamp;temperature;humidity
27162;DHT22;54464;50.558;9.704;2023-02-11T00:01:41;1.60;99.90
27162;DHT22;54464;50.558;9.704;2023-02-11T00:04:06;1.60;99.90
27162;DHT22;54464;50.558;9.704;2023-02-11T00:06:33;1.50;99.90
27162;DHT22;54464;50.558;9.704;2023-02-11T00:08:59;1.50;99.90
27162;DHT22;54464;50.558;9.704;2023-02-11T00:11:26;1.50;99.90
27162;DHT22;54464;50.558;9.704;2023-02-11T00:14:00;1.50;99.90
27162;DHT22;54464;50.558;9.704;2023-02-11T00:16:26;1.50;99.90
27162;DHT22;54464;50.558;9.704;2023-02-11T00:18:52;1.50;99.90
27162;DHT22;54464;50.558;9.704;2023-02-11T00:21:23;1.50;99.90
27162;DHT22;54464;50.558;9.704;2023-02-11T00:23:52;1.50;99.90
27162;DHT22;54464;50.558;9.704;2023-02-11T00:26:27;1.50;99.90
27162;DHT22;54464;50.558;9.704;2023-02-11T00:28:53;1.40;99.90
27162;DHT22;54464;50.558;9.704;2023-02-11T00:31:24;1.50;99.90
27162;DHT22;54464;50.558;9.704;2023-02-11T00:33:50;1.50;99.90
27162;DHT22;54464;50.558;9.704;2023-02-11T00:36:18;1.50;99.90
27162;DHT22;54464;50.558;9.704;2023-02-11T00:38:44;1.50;99.90
27162;DHT22;54464;50.558;9.704;2023-02-11T00:41:11;1.50;99.90
27162;DHT22;54464;50.558;9.704;2023-02-11T00:43:38;1.50;99.90
27162;DHT22;54464;50.558;9.704;2023-02-11T00:46:03;1.50;99.90
27162;DHT22;54464;50.558;9.704;2023-02-11T00:48:29;1.50;99.90
27162;DHT22;54464;50.558;9.704;2023-02-11T00:50:55;1.50;99.90
27162;DHT22;54464;50.558;9.704;2023-02-11T00:53:21;1.50;99.90
27162;DHT22;54464;50.558;9.704;2023-02-11T00:55:46;1.50;99.90
27162;DHT22;54464;50.558;9.704;2023-02-11T00:58:12;1.40;99.90
27162;DHT22;54464;50.558;9.704;2023-02-11T01:00:38;1.40;99.90
27162;DHT22;54464;50.558;9.704;2023-02-11T01:03:03;1.40;99.90
27162;DHT22;54464;50.558;9.704;2023-02-11T01:05:29;1.40;99.90
27162;DHT22;54464;50.558;9.704;2023-02-11T01:07:55;1.40;99.90
27162;DHT22;54464;50.558;9.704;2023-02-11T01:10:20;1.40;99.90
27162;DHT22;54464;50.558;9.704;2023-02-11T01:12:46;1.40;99.90
27162;DHT22;54464;50.558;9.704;2023-02-11T01:15:14;1.40;99.90
27162;DHT22;54464;50.558;9.704;2023-02-11T01:17:39;1.40;99.90
27162;DHT22;54464;50.558;9.704;2023-02-11T01:20:07;1.40;99.90
27162;DHT22;54464;50.558;9.704;2023-02-11T01:22:33;1.40;99.90
27162;DHT22;54464;50.558;9.704;2023-02-11T01:25:02;1.40;99.90
27162;DHT22;54464;50.558;9.704;2023-02-11T01:27:27;1.40;99.90
27162;DHT22;54464;50.558;9.704;2023-02-11T01:29:53;1.40;99.90
27162;DHT22;54464;50.558;9.704;2023-02-11T01:32:19;1.40;99.90
27162;DHT22;54464;50.558;9.704;2023-02-11T01:34:44;1.40;99.90
27162;DHT22;54464;50.558;9.704;2023-02-11T01:37:10;1.40;99.90
27162;DHT22;54464;50.558;9.704;2023-02-11T01:39:35;1.40;99.90
27162;DHT22;54464;50.558;9.704;2023-02-11T01:42:01;1.40;99.90
27162;DHT22;54464;50.558;9.704;2023-02-11T01:44:31;1.40;99.90
27162;DHT22;54464;50.558;9.704;2023-02-11T01:46:58;1.40;99.90
27162;DHT22;54464;50.558;9.704;2023-02-11T01:49:30;1.40;99.90
27162;DHT22;54464;50.558;9.704;2023-02-11T01:54:53;1.40;99.90
27162;DHT22;54464;50.558;9.704;2023-02-11T01:57:39;1.40;99.90
27162;DHT22;54464;50.558;9.704;2023-02-11T02:00:14;1.40;99.90
27162;DHT22;54464;50.558;9.704;2023-02-11T02:05:34;1.40;99.90
27162;DHT22;54464;50.558;9.704;2023-02-11T02:08:15;1.40;99.90
27162;DHT22;54464;50.558;9.704;2023-02-11T02:10:45;1.50;99.90
27162;DHT22;54464;50.558;9.704;2023-02-11T02:13:12;1.50;99.90
27162;DHT22;54464;50.558;9.704;2023-02-11T02:15:41;1.60;99.90
27162;DHT22;54464;50.558;9.704;2023-02-11T02:24:12;1.50;99.90
27162;DHT22;54464;50.558;9.704;2023-02-11T02:37:23;1.50;99.90
27162;DHT22;54464;50.558;9.704;2023-02-11T02:40:02;1.60;99.90
27162;DHT22;54464;50.558;9.704;2023-02-11T02:42:29;1.50;99.90
27162;DHT22;54464;50.558;9.704;2023-02-11T02:44:55;1.50;99.90
27162;DHT22;54464;50.558;9.704;2023-02-11T02:47:21;1.50;99.90
27162;DHT22;54464;50.558;9.704;2023-02-11T02:49:46;1.50;99.90
27162;DHT22;54464;50.558;9.704;2023-02-11T02:55:39;1.50;99.90
27162;DHT22;54464;50.558;9.704;2023-02-11T03:06:48;1.50;99.90
27162;DHT22;54464;50.558;9.704;2023-02-11T03:09:34;1.40;99.90
27162;DHT22;54464;50.558;9.704;2023-02-11T03:12:02;1.40;99.90
27162;DHT22;54464;50.558;9.704;2023-02-11T03:14:29;1.50;99.90
27162;DHT22;54464;50.558;9.704;2023-02-11T03:16:58;1.50;99.90
27162;DHT22;54464;50.558;9.704;2023-02-11T03:19:39;1.40;99.90
27162;DHT22;54464;50.558;9.704;2023-02-11T03:22:10;1.40;99.90
27162;DHT22;54464;50.558;9.704;2023-02-11T03:24:38;1.40;99.90
27162;DHT22;54464;50.558;9.704;2023-02-11T03:30:00;1.40;99.90
27162;DHT22;54464;50.558;9.704;2023-02-11T03:32:36;1.40;99.90
27162;DHT22;54464;50.558;9.704;2023-02-11T03:35:23;1.40;99.90
27162;DHT22;54464;50.558;9.704;2023-02-11T03:37:57;1.30;99.90
27162;DHT22;54464;50.558;9.704;2023-02-11T03:40:30;1.40;99.90
27162;DHT22;54464;50.558;9.704;2023-02-11T03:43:03;1.40;99.90
27162;DHT22;54464;50.558;9.704;2023-02-11T03:45:29;1.40;99.90
27162;DHT22;54464;50.558;9.704;2023-02-11T03:48:07;1.40;99.90
27162;DHT22;54464;50.558;9.704;2023-02-11T03:50:35;1.40;99.90
27162;DHT22;54464;50.558;9.704;2023-02-11T03:53:02;1.50;99.90
27162;DHT22;54464;50.558;9.704;2023-02-11T03:55:29;1.50;99.90
27162;DHT22;54464;50.558;9.704;2023-02-11T03:57:57;1.50;99.90
27162;DHT22;54464;50.558;9.704;2023-02-11T04:00:34;1.50;99.90
27162;DHT22;54464;50.558;9.704;2023-02-11T04:03:01;1.50;99.90
27162;DHT22;54464;50.558;9.704;2023-02-11T04:05:27;1.50;99.90
27162;DHT22;54464;50.558;9.704;2023-02-11T04:07:53;1.50;99.90
27162;DHT22;54464;50.558;9.704;2023-02-11T04:10:18;1.50;99.90
27162;DHT22;54464;50.558;9.704;2023-02-11T04:12:44;1.50;99.90
27162;DHT22;54464;50.558;9.704;2023-02-11T04:15:10;1.50;99.90
27162;DHT22;54464;50.558;9.704;2023-02-11T04:17:36;1.50;99.90
27162;DHT22;54464;50.558;9.704;2023-02-11T04:20:02;1.50;99.90
27162;DHT22;54464;50.558;9.704;2023-02-11T04:22:29;1.50;99.90
27162;DHT22;54464;50.558;9.704;2023-02-11T04:24:55;1.50;99.90
27162;DHT22;54464;50.558;9.704;2023-02-11T04:27:20;1.50;99.90
27162;DHT22;54464;50.558;9.704;2023-02-11T04:29:46;1.50;99.90
27162;DHT22;54464;50.558;9.704;2023-02-11T04:32:12;1.50;99.90
27162;DHT22;54464;50.558;9.704;2023-02-11T04:34:37;1.50;99.90
27162;DHT22;54464;50.558;9.704;2023-02-11T04:37:03;1.50;99.90
27162;DHT22;54464;50.558;9.704;2023-02-11T04:39:29;1.50;99.90
27162;DHT22;54464;50.558;9.704;2023-02-11T04:41:54;1.50;99.90
27162;DHT22;54464;50.558;9.704;2023-02-11T04:44:20;1.50;99.90
27162;DHT22;54464;50.558;9.704;2023-02-11T04:46:46;1.50;99.90
27162;DHT22;54464;50.558;9.704;2023-02-11T04:49:13;1.50;99.90
27162;DHT22;54464;50.558;9.704;2023-02-11T04:51:39;1.50;99.90
27162;DHT22;54464;50.558;9.704;2023-02-11T04:54:05;1.50;99.90
27162;DHT22;54464;50.558;9.704;2023-02-11T04:56:30;1.50;99.90
27162;DHT22;54464;50.558;9.704;2023-02-11T04:58:56;1.50;99.90
27162;DHT22;54464;50.558;9.704;2023-02-11T05:01:22;1.50;99.90
27162;DHT22;54464;50.558;9.704;2023-02-11T05:03:47;1.50;99.90
27162;DHT22;54464;50.558;9.704;2023-02-11T05:06:13;1.50;99.90
27162;DHT22;54464;50.558;9.704;2023-02-11T05:08:39;1.50;99.90
27162;DHT22;54464;50.558;9.704;2023-02-11T05:11:05;1.60;99.90
27162;DHT22;54464;50.558;9.704;2023-02-11T05:13:32;1.60;99.90
27162;DHT22;54464;50.558;9.704;2023-02-11T05:15:58;1.60;99.90
27162;DHT22;54464;50.558;9.704;2023-02-11T05:18:24;1.60;99.90
27162;DHT22;54464;50.558;9.704;2023-02-11T05:20:49;1.60;99.90
27162;DHT22;54464;50.558;9.704;2023-02-11T05:23:15;1.60;99.90
27162;DHT22;54464;50.558;9.704;2023-02-11T05:25:41;1.60;99.90
27162;DHT22;54464;50.558;9.704;2023-02-11T05:28:06;1.60;99.90
27162;DHT22;54464;50.558;9.704;2023-02-11T05:30:32;1.60;99.90
27162;DHT22;54464;50.558;9.704;2023-02-11T05:32:58;1.60;99.90
27162;DHT22;54464;50.558;9.704;2023-02-11T05:35:23;1.60;99.90
27162;DHT22;54464;50.558;9.704;2023-02-11T05:37:49;1.70;99.90
27162;DHT22;54464;50.558;9.704;2023-02-11T05:40:15;1.60;99.90
27162;DHT22;54464;50.558;9.704;2023-02-11T05:42:40;1.60;99.90
27162;DHT22;54464;50.558;9.704;2023-02-11T05:45:06;1.60;99.90
27162;DHT22;54464;50.558;9.704;2023-02-11T05:47:32;1.70;99.90
27162;DHT22;54464;50.558;9.704;2023-02-11T05:49:58;1.70;99.90
27162;DHT22;54464;50.558;9.704;2023-02-11T05:52:24;1.70;99.90
27162;DHT22;54464;50.558;9.704;2023-02-11T05:54:50;1.70;99.90
27162;DHT22;54464;50.558;9.704;2023-02-11T05:57:16;1.70;99.90
27162;DHT22;54464;50.558;9.704;2023-02-11T05:59:42;1.70;99.90
27162;DHT22;54464;50.558;9.704;2023-02-11T06:02:08;1.70;99.90
27162;DHT22;54464;50.558;9.704;2023-02-11T06:04:35;1.70;99.90
27162;DHT22;54464;50.558;9.704;2023-02-11T06:07:01;1.70;99.90
27162;DHT22;54464;50.558;9.704;2023-02-11T06:09:27;1.70;99.90
27162;DHT22;54464;50.558;9.704;2023-02-11T06:11:53;1.70;99.90
27162;DHT22;54464;50.558;9.704;2023-02-11T06:14:18;1.70;99.90
27162;DHT22;54464;50.558;9.704;2023-02-11T06:16:44;1.70;99.90
27162;DHT22;54464;50.558;9.704;2023-02-11T06:19:11;1.70;99.90
27162;DHT22;54464;50.558;9.704;2023-02-11T06:21:37;1.70;99.90
27162;DHT22;54464;50.558;9.704;2023-02-11T06:24:03;1.70;99.90
27162;DHT22;54464;50.558;9.704;2023-02-11T06:26:29;1.70;99.90
27162;DHT22;54464;50.558;9.704;2023-02-11T06:28:54;1.70;99.90
27162;DHT22;54464;50.558;9.704;2023-02-11T06:31:20;1.70;99.90
27162;DHT22;54464;50.558;9.704;2023-02-11T06:33:46;1.80;99.90
27162;DHT22;54464;50.558;9.704;2023-02-11T06:36:18;1.80;99.90
27162;DHT22;54464;50.558;9.704;2023-02-11T06:38:45;1.80;99.90
27162;DHT22;54464;50.558;9.704;2023-02-11T06:41:12;1.80;99.90
27162;DHT22;54464;50.558;9.704;2023-02-11T06:43:39;1.80;99.90
27162;DHT22;54464;50.558;9.704;2023-02-11T06:46:05;1.80;99.90
27162;DHT22;54464;50.558;9.704;2023-02-11T06:48:31;1.80;99.90
27162;DHT22;54464;50.558;9.704;2023-02-11T06:51:04;1.80;99.90
27162;DHT22;54464;50.558;9.704;2023-02-11T06:53:33;1.80;99.90
27162;DHT22;54464;50.558;9.704;2023-02-11T06:56:08;1.80;99.90
27162;DHT22;54464;50.558;9.704;2023-02-11T06:58:35;1.80;99.90
27162;DHT22;54464;50.558;9.704;2023-02-11T07:01:05;1.80;99.90
27162;DHT22;54464;50.558;9.704;2023-02-11T07:03:33;1.80;99.90
27162;DHT22;54464;50.558;9.704;2023-02-11T07:06:04;1.80;99.90
27162;DHT22;54464;50.558;9.704;2023-02-11T07:08:31;1.80;99.90
27162;DHT22;54464;50.558;9.704;2023-02-11T07:10:57;1.80;99.90
27162;DHT22;54464;50.558;9.704;2023-02-11T07:13:23;1.80;99.90
27162;DHT22;54464;50.558;9.704;2023-02-11T07:15:48;1.80;99.90
27162;DHT22;54464;50.558;9.704;2023-02-11T07:18:14;1.80;99.90
27162;DHT22;54464;50.558;9.704;2023-02-11T07:20:40;1.80;99.90
27162;DHT22;54464;50.558;9.704;2023-02-11T07:23:06;1.90;99.90
27162;DHT22;54464;50.558;9.704;2023-02-11T07:25:31;1.90;99.90
27162;DHT22;54464;50.558;9.704;2023-02-11T07:27:57;1.80;99.90
27162;DHT22;54464;50.558;9.704;2023-02-11T07:30:23;1.90;99.90
27162;DHT22;54464;50.558;9.704;2023-02-11T07:32:48;1.90;99.90
27162;DHT22;54464;50.558;9.704;2023-02-11T07:35:14;2.00;99.90
27162;DHT22;54464;50.558;9.704;2023-02-11T07:37:40;1.90;99.90
27162;DHT22;54464;50.558;9.704;2023-02-11T07:40:08;1.90;99.90
27162;DHT22;54464;50.558;9.704;2023-02-11T07:42:34;1.90;99.90
27162;DHT22;54464;50.558;9.704;2023-02-11T07:45:00;1.90;99.90
27162;DHT22;54464;50.558;9.704;2023-02-11T07:47:26;1.90;99.90
27162;DHT22;54464;50.558;9.704;2023-02-11T07:49:52;2.00;99.90
27162;DHT22;54464;50.558;9.704;2023-02-11T07:52:18;2.00;99.90
27162;DHT22;54464;50.558;9.704;2023-02-11T07:54:44;2.00;99.90
27162;DHT22;54464;50.558;9.704;2023-02-11T07:57:09;2.00;99.90
27162;DHT22;54464;50.558;9.704;2023-02-11T07:59:38;2.00;99.90
27162;DHT22;54464;50.558;9.704;2023-02-11T08:02:03;2.00;99.90
27162;DHT22;54464;50.558;9.704;2023-02-11T08:04:29;2.00;99.90
27162;DHT22;54464;50.558;9.704;2023-02-11T08:06:54;2.00;99.90
27162;DHT22;54464;50.558;9.704;2023-02-11T08:09:21;2.00;99.90
27162;DHT22;54464;50.558;9.704;2023-02-11T08:11:47;2.00;99.90
27162;DHT22;54464;50.558;9.704;2023-02-11T08:14:13;2.10;99.90
27162;DHT22;54464;50.558;9.704;2023-02-11T08:16:39;2.00;99.90
27162;DHT22;54464;50.558;9.704;2023-02-11T08:19:12;2.10;99.90
27162;DHT22;54464;50.558;9.704;2023-02-11T08:21:38;2.10;99.90
27162;DHT22;54464;50.558;9.704;2023-02-11T08:24:04;2.10;99.90
27162;DHT22;54464;50.558;9.704;2023-02-11T08:26:31;2.10;99.90
27162;DHT22;54464;50.558;9.704;2023-02-11T08:28:59;2.10;99.90
27162;DHT22;54464;50.558;9.704;2023-02-11T08:31:28;2.10;99.90
27162;DHT22;54464;50.558;9.704;2023-02-11T08:33:55;2.10;99.90
27162;DHT22;54464;50.558;9.704;2023-02-11T08:36:27;2.10;99.90
27162;DHT22;54464;50.558;9.704;2023-02-11T08:39:01;2.10;99.90
27162;DHT22;54464;50.558;9.704;2023-02-11T08:41:32;2.10;99.90
27162;DHT22;54464;50.558;9.704;2023-02-11T08:43:58;2.10;99.90
27162;DHT22;54464;50.558;9.704;2023-02-11T08:46:24;2.10;99.90
27162;DHT22;54464;50.558;9.704;2023-02-11T08:48:50;2.00;99.90
27162;DHT22;54464;50.558;9.704;2023-02-11T08:51:21;2.00;99.90
27162;DHT22;54464;50.558;9.704;2023-02-11T08:53:47;2.00;99.90
27162;DHT22;54464;50.558;9.704;2023-02-11T08:56:14;2.10;99.90
27162;DHT22;54464;50.558;9.704;2023-02-11T08:58:40;2.10;99.90
27162;DHT22;54464;50.558;9.704;2023-02-11T09:01:14;2.10;99.90
27162;DHT22;54464;50.558;9.704;2023-02-11T09:03:41;2.20;99.90
27162;DHT22;54464;50.558;9.704;2023-02-11T09:06:08;2.10;99.90
27162;DHT22;54464;50.558;9.704;2023-02-11T09:08:35;2.10;99.90
27162;DHT22;54464;50.558;9.704;2023-02-11T09:11:02;2.20;99.90
27162;DHT22;54464;50.558;9.704;2023-02-11T09:13:28;2.20;99.90
27162;DHT22;54464;50.558;9.704;2023-02-11T09:15:57;2.20;99.90
27162;DHT22;54464;50.558;9.704;2023-02-11T09:18:23;2.20;99.90
27162;DHT22;54464;50.558;9.704;2023-02-11T09:20:48;2.20;99.90
27162;DHT22;54464;50.558;9.704;2023-02-11T09:23:14;2.20;99.90
27162;DHT22;54464;50.558;9.704;2023-02-11T09:25:40;2.20;99.90
27162;DHT22;54464;50.558;9.704;2023-02-11T09:28:07;2.20;99.90
27162;DHT22;54464;50.558;9.704;2023-02-11T09:30:34;2.30;99.90
27162;DHT22;54464;50.558;9.704;2023-02-11T09:33:01;2.30;99.90
27162;DHT22;54464;50.558;9.704;2023-02-11T09:35:27;2.30;99.90
27162;DHT22;54464;50.558;9.704;2023-02-11T09:37:53;2.30;99.90
27162;DHT22;54464;50.558;9.704;2023-02-11T09:40:19;2.30;99.90
27162;DHT22;54464;50.558;9.704;2023-02-11T09:45:30;2.40;99.90
27162;DHT22;54464;50.558;9.704;2023-02-11T09:48:04;2.50;99.90
27162;DHT22;54464;50.558;9.704;2023-02-11T09:50:38;2.40;99.90
27162;DHT22;54464;50.558;9.704;2023-02-11T09:53:28;2.50;99.90
27162;DHT22;54464;50.558;9.704;2023-02-11T09:56:00;2.50;99.90
27162;DHT22;54464;50.558;9.704;2023-02-11T09:58:32;2.50;99.90
27162;DHT22;54464;50.558;9.704;2023-02-11T10:06:54;2.50;99.90
27162;DHT22;54464;50.558;9.704;2023-02-11T10:09:48;2.60;99.90
27162;DHT22;54464;50.558;9.704;2023-02-11T10:17:56;2.70;99.90
27162;DHT22;54464;50.558;9.704;2023-02-11T10:20:37;2.70;99.90
27162;DHT22;54464;50.558;9.704;2023-02-11T10:23:12;2.80;99.90
27162;DHT22;54464;50.558;9.704;2023-02-11T10:25:43;2.80;99.90
27162;DHT22;54464;50.558;9.704;2023-02-11T10:28:23;2.80;99.90
27162;DHT22;54464;50.558;9.704;2023-02-11T10:31:22;2.80;99.90
27162;DHT22;54464;50.558;9.704;2023-02-11T10:33:56;2.80;99.90
27162;DHT22;54464;50.558;9.704;2023-02-11T10:36:34;2.80;99.90
27162;DHT22;54464;50.558;9.704;2023-02-11T10:39:19;2.80;99.90
27162;DHT22;54464;50.558;9.704;2023-02-11T10:42:09;2.80;99.90
27162;DHT22;54464;50.558;9.704;2023-02-11T10:44:41;2.80;99.90
27162;DHT22;54464;50.558;9.704;2023-02-11T10:47:29;2.90;99.90
27162;DHT22;54464;50.558;9.704;2023-02-11T10:49:57;2.90;99.90
27162;DHT22;54464;50.558;9.704;2023-02-11T10:52:28;2.90;99.90
27162;DHT22;54464;50.558;9.704;2023-02-11T10:55:14;3.00;99.90
27162;DHT22;54464;50.558;9.704;2023-02-11T10:58:01;3.00;99.90
27162;DHT22;54464;50.558;9.704;2023-02-11T11:00:34;3.10;99.90
27162;DHT22;54464;50.558;9.704;2023-02-11T11:03:03;3.10;99.90
27162;DHT22;54464;50.558;9.704;2023-02-11T11:06:07;3.10;99.90
27162;DHT22;54464;50.558;9.704;2023-02-11T11:08:40;3.20;99.90
27162;DHT22;54464;50.558;9.704;2023-02-11T11:11:18;3.20;99.90
27162;DHT22;54464;50.558;9.704;2023-02-11T11:14:07;3.30;99.90
27162;DHT22;54464;50.558;9.704;2023-02-11T11:16:51;3.40;99.90
27162;DHT22;54464;50.558;9.704;2023-02-11T11:19:23;3.30;99.90
27162;DHT22;54464;50.558;9.704;2023-02-11T11:21:53;3.30;99.90
27162;DHT22;54464;50.558;9.704;2023-02-11T11:24:42;3.30;99.90
27162;DHT22;54464;50.558;9.704;2023-02-11T11:27:17;3.40;99.90
27162;DHT22;54464;50.558;9.704;2023-02-11T11:29:49;3.40;99.90
27162;DHT22;54464;50.558;9.704;2023-02-11T11:32:26;3.40;99.90
27162;DHT22;54464;50.558;9.704;2023-02-11T11:35:00;3.40;99.90
27162;DHT22;54464;50.558;9.704;2023-02-11T11:37:33;3.40;99.90
27162;DHT22;54464;50.558;9.704;2023-02-11T11:40:07;3.40;99.90
27162;DHT22;54464;50.558;9.704;2023-02-11T11:42:35;3.40;99.90
27162;DHT22;54464;50.558;9.704;2023-02-11T11:45:23;3.40;99.90
27162;DHT22;54464;50.558;9.704;2023-02-11T11:51:04;3.40;99.90
27162;DHT22;54464;50.558;9.704;2023-02-11T11:53:39;3.50;99.90
27162;DHT22;54464;50.558;9.704;2023-02-11T11:56:15;3.40;99.90
27162;DHT22;54464;50.558;9.704;2023-02-11T11:58:41;3.50;99.90
27162;DHT22;54464;50.558;9.704;2023-02-11T12:04:16;3.50;99.90
27162;DHT22;54464;50.558;9.704;2023-02-11T12:09:42;3.60;99.90
27162;DHT22;54464;50.558;9.704;2023-02-11T12:23:00;3.80;99.90
27162;DHT22;54464;50.558;9.704;2023-02-11T12:47:40;3.90;99.90
27162;DHT22;54464;50.558;9.704;2023-02-11T12:55:38;4.00;99.90
27162;DHT22;54464;50.558;9.704;2023-02-11T12:58:04;4.00;99.90
27162;DHT22;54464;50.558;9.704;2023-02-11T13:00:43;4.00;99.90
27162;DHT22;54464;50.558;9.704;2023-02-11T13:03:11;4.00;99.90
27162;DHT22;54464;50.558;9.704;2023-02-11T13:05:54;4.00;99.90
27162;DHT22;54464;50.558;9.704;2023-02-11T13:08:32;4.00;99.90
27162;DHT22;54464;50.558;9.704;2023-02-11T13:11:06;4.00;99.90
27162;DHT22;54464;50.558;9.704;2023-02-11T13:16:45;4.00;99.90
27162;DHT22;54464;50.558;9.704;2023-02-11T13:19:47;4.00;99.90
27162;DHT22;54464;50.558;9.704;2023-02-11T13:22:43;4.00;99.90
27162;DHT22;54464;50.558;9.704;2023-02-11T13:30:36;3.90;99.90
27162;DHT22;54464;50.558;9.704;2023-02-11T13:33:20;3.90;99.90
27162;DHT22;54464;50.558;9.704;2023-02-11T13:38:24;3.80;99.90
27162;DHT22;54464;50.558;9.704;2023-02-11T13:46:28;3.90;99.90
27162;DHT22;54464;50.558;9.704;2023-02-11T13:48:54;3.90;99.90
27162;DHT22;54464;50.558;9.704;2023-02-11T13:51:37;3.90;99.90
27162;DHT22;54464;50.558;9.704;2023-02-11T13:54:04;3.80;99.90
27162;DHT22;54464;50.558;9.704;2023-02-11T13:56:35;3.90;99.90
27162;DHT22;54464;50.558;9.704;2023-02-11T13:59:42;3.90;99.90
27162;DHT22;54464;50.558;9.704;2023-02-11T14:02:03;3.80;99.90
27162;DHT22;54464;50.558;9.704;2023-02-11T14:05:01;3.80;99.90
27162;DHT22;54464;50.558;9.704;2023-02-11T14:08:23;3.90;99.90
27162;DHT22;54464;50.558;9.704;2023-02-11T14:16:19;3.90;99.90
27162;DHT22;54464;50.558;9.704;2023-02-11T14:21:31;3.90;99.90
27162;DHT22;54464;50.558;9.704;2023-02-11T14:29:08;4.00;99.90
27162;DHT22;54464;50.558;9.704;2023-02-11T14:31:50;4.00;99.90
27162;DHT22;54464;50.558;9.704;2023-02-11T14:34:52;4.00;99.90
27162;DHT22;54464;50.558;9.704;2023-02-11T14:37:56;4.00;99.90
27162;DHT22;54464;50.558;9.704;2023-02-11T14:40:32;4.00;99.90
27162;DHT22;54464;50.558;9.704;2023-02-11T14:43:11;3.90;99.90
27162;DHT22;54464;50.558;9.704;2023-02-11T14:45:37;4.00;99.90
27162;DHT22;54464;50.558;9.704;2023-02-11T14:48:07;4.00;99.90
27162;DHT22;54464;50.558;9.704;2023-02-11T14:50:45;3.90;99.90
27162;DHT22;54464;50.558;9.704;2023-02-11T14:53:21;3.90;99.90
27162;DHT22;54464;50.558;9.704;2023-02-11T14:55:50;3.90;99.90
27162;DHT22;54464;50.558;9.704;2023-02-11T14:58:22;3.90;99.90
27162;DHT22;54464;50.558;9.704;2023-02-11T15:00:59;3.90;99.90
27162;DHT22;54464;50.558;9.704;2023-02-11T15:03:38;3.90;99.90
27162;DHT22;54464;50.558;9.704;2023-02-11T15:06:18;3.90;99.90
27162;DHT22;54464;50.558;9.704;2023-02-11T15:08:53;4.00;99.90
27162;DHT22;54464;50.558;9.704;2023-02-11T15:11:22;4.00;99.90
27162;DHT22;54464;50.558;9.704;2023-02-11T15:13:49;4.00;99.90
27162;DHT22;54464;50.558;9.704;2023-02-11T15:16:21;4.00;99.90
27162;DHT22;54464;50.558;9.704;2023-02-11T15:18:51;3.90;99.90
27162;DHT22;54464;50.558;9.704;2023-02-11T15:21:25;4.00;99.90
27162;DHT22;54464;50.558;9.704;2023-02-11T15:24:04;3.90;99.90
27162;DHT22;54464;50.558;9.704;2023-02-11T15:26:31;3.90;99.90
27162;DHT22;54464;50.558;9.704;2023-02-11T15:28:57;3.90;99.90
27162;DHT22;54464;50.558;9.704;2023-02-11T15:31:25;3.80;99.90
27162;DHT22;54464;50.558;9.704;2023-02-11T15:33:52;3.80;99.90
27162;DHT22;54464;50.558;9.704;2023-02-11T15:36:20;3.80;99.90
27162;DHT22;54464;50.558;9.704;2023-02-11T15:39:18;3.80;99.90
27162;DHT22;54464;50.558;9.704;2023-02-11T15:41:44;3.80;99.90
27162;DHT22;54464;50.558;9.704;2023-02-11T15:44:39;3.80;99.90
27162;DHT22;54464;50.558;9.704;2023-02-11T15:47:09;3.80;99.90
27162;DHT22;54464;50.558;9.704;2023-02-11T15:49:35;3.80;99.90
27162;DHT22;54464;50.558;9.704;2023-02-11T15:52:02;3.80;99.90
27162;DHT22;54464;50.558;9.704;2023-02-11T15:54:28;3.80;99.90
27162;DHT22;54464;50.558;9.704;2023-02-11T15:57:02;3.80;99.90
27162;DHT22;54464;50.558;9.704;2023-02-11T15:59:40;3.80;99.90
27162;DHT22;54464;50.558;9.704;2023-02-11T16:02:30;3.80;99.90
27162;DHT22;54464;50.558;9.704;2023-02-11T16:05:05;3.80;99.90
27162;DHT22;54464;50.558;9.704;2023-02-11T16:10:28;3.80;99.90
27162;DHT22;54464;50.558;9.704;2023-02-11T16:13:01;3.80;99.90
27162;DHT22;54464;50.558;9.704;2023-02-11T16:15:47;3.80;99.90
27162;DHT22;54464;50.558;9.704;2023-02-11T16:18:30;3.80;99.90
27162;DHT22;54464;50.558;9.704;2023-02-11T16:20:58;3.90;99.90
27162;DHT22;54464;50.558;9.704;2023-02-11T16:23:38;3.80;99.90
27162;DHT22;54464;50.558;9.704;2023-02-11T16:26:19;3.90;99.90
27162;DHT22;54464;50.558;9.704;2023-02-11T16:28:45;3.80;99.90
27162;DHT22;54464;50.558;9.704;2023-02-11T16:31:11;3.90;99.90
27162;DHT22;54464;50.558;9.704;2023-02-11T16:33:37;3.90;99.90
27162;DHT22;54464;50.558;9.704;2023-02-11T16:36:11;3.90;99.90
27162;DHT22;54464;50.558;9.704;2023-02-11T16:38:37;3.90;99.90
27162;DHT22;54464;50.558;9.704;2023-02-11T16:41:03;3.90;99.90
27162;DHT22;54464;50.558;9.704;2023-02-11T16:43:29;3.90;99.90
27162;DHT22;54464;50.558;9.704;2023-02-11T16:45:54;3.90;99.90
27162;DHT22;54464;50.558;9.704;2023-02-11T16:48:22;4.00;99.90
27162;DHT22;54464;50.558;9.704;2023-02-11T16:50:49;4.00;99.90
27162;DHT22;54464;50.558;9.704;2023-02-11T16:53:18;4.00;99.90
27162;DHT22;54464;50.558;9.704;2023-02-11T16:55:45;4.00;99.90
27162;DHT22;54464;50.558;9.704;2023-02-11T16:58:11;3.90;99.90
27162;DHT22;54464;50.558;9.704;2023-02-11T17:00:36;3.90;99.90
27162;DHT22;54464;50.558;9.704;2023-02-11T17:03:19;4.00;99.90
27162;DHT22;54464;50.558;9.704;2023-02-11T17:05:45;4.00;99.90
27162;DHT22;54464;50.558;9.704;2023-02-11T17:08:12;4.00;99.90
27162;DHT22;54464;50.558;9.704;2023-02-11T17:10:37;4.00;99.90
27162;DHT22;54464;50.558;9.704;2023-02-11T17:13:04;4.00;99.90
27162;DHT22;54464;50.558;9.704;2023-02-11T17:15:30;4.00;99.90
27162;DHT22;54464;50.558;9.704;2023-02-11T17:17:57;4.00;99.90
27162;DHT22;54464;50.558;9.704;2023-02-11T17:20:22;4.00;99.90
27162;DHT22;54464;50.558;9.704;2023-02-11T17:22:48;4.00;99.90
27162;DHT22;54464;50.558;9.704;2023-02-11T17:25:14;4.00;99.90
27162;DHT22;54464;50.558;9.704;2023-02-11T17:27:40;4.00;99.90
27162;DHT22;54464;50.558;9.704;2023-02-11T17:30:07;4.00;99.90
27162;DHT22;54464;50.558;9.704;2023-02-11T17:32:33;4.00;99.90
27162;DHT22;54464;50.558;9.704;2023-02-11T17:34:59;3.90;99.90
27162;DHT22;54464;50.558;9.704;2023-02-11T17:37:24;3.90;99.90
27162;DHT22;54464;50.558;9.704;2023-02-11T17:39:50;3.90;99.90
27162;DHT22;54464;50.558;9.704;2023-02-11T17:42:16;3.90;99.90
27162;DHT22;54464;50.558;9.704;2023-02-11T17:44:44;3.90;99.90
27162;DHT22;54464;50.558;9.704;2023-02-11T17:47:10;3.90;99.90
27162;DHT22;54464;50.558;9.704;2023-02-11T17:49:37;3.90;99.90
27162;DHT22;54464;50.558;9.704;2023-02-11T17:52:03;3.90;99.90
27162;DHT22;54464;50.558;9.704;2023-02-11T17:54:29;3.90;99.90
27162;DHT22;54464;50.558;9.704;2023-02-11T17:56:54;3.90;99.90
27162;DHT22;54464;50.558;9.704;2023-02-11T17:59:20;3.90;99.90
27162;DHT22;54464;50.558;9.704;2023-02-11T18:01:46;3.90;99.90
27162;DHT22;54464;50.558;9.704;2023-02-11T18:04:15;4.00;99.90
27162;DHT22;54464;50.558;9.704;2023-02-11T18:06:41;3.90;99.90
27162;DHT22;54464;50.558;9.704;2023-02-11T18:09:07;3.90;99.90
27162;DHT22;54464;50.558;9.704;2023-02-11T18:11:34;3.90;99.90
27162;DHT22;54464;50.558;9.704;2023-02-11T18:14:02;3.90;99.90
27162;DHT22;54464;50.558;9.704;2023-02-11T18:16:29;3.90;99.90